sensor_id;sensor_type;location;lat;lon;timestamp;temperature;humidity
65766;SHT31;52915;53.718;19.946;2023-08-30T00:00:07;18.48;88.39
65766;SHT31;52915;53.718;19.946;2023-08-30T00:05:38;18.55;88.36
65766;SHT31;52915;53.718;19.946;2023-08-30T00:10:44;18.62;88.25
65766;SHT31;52915;53.718;19.946;2023-08-30T00:15:49;18.67;88.22
65766;SHT31;52915;53.718;19.946;2023-08-30T00:20:53;18.69;88.31
65766;SHT31;52915;53.718;19.946;2023-08-30T00:26:00;18.74;88.29
65766;SHT31;52915;53.718;19.946;2023-08-30T00:31:04;18.74;88.36
65766;SHT31;52915;53.718;19.946;2023-08-30T00:36:09;18.75;88.49
65766;SHT31;52915;53.718;19.946;2023-08-30T00:41:14;18.76;88.50
65766;SHT31;52915;53.718;19.946;2023-08-30T00:46:18;18.77;88.50
65766;SHT31;52915;53.718;19.946;2023-08-30T00:51:22;18.78;88.43
65766;SHT31;52915;53.718;19.946;2023-08-30T00:56:27;18.80;88.39
65766;SHT31;52915;53.718;19.946;2023-08-30T01:01:32;18.79;88.35
65766;SHT31;52915;53.718;19.946;2023-08-30T01:06:36;18.78;88.39
65766;SHT31;52915;53.718;19.946;2023-08-30T01:11:43;18.75;88.56
65766;SHT31;52915;53.718;19.946;2023-08-30T01:16:53;18.73;88.78
65766;SHT31;52915;53.718;19.946;2023-08-30T01:22:17;18.73;88.96
65766;SHT31;52915;53.718;19.946;2023-08-30T01:27:43;18.74;89.32
65766;SHT31;52915;53.718;19.946;2023-08-30T01:32:51;18.75;89.50
65766;SHT31;52915;53.718;19.946;2023-08-30T01:37:56;18.77;89.68
65766;SHT31;52915;53.718;19.946;2023-08-30T01:43:02;18.76;89.86
65766;SHT31;52915;53.718;19.946;2023-08-30T01:48:09;18.75;89.94
65766;SHT31;52915;53.718;19.946;2023-08-30T01:53:17;18.73;89.97
65766;SHT31;52915;53.718;19.946;2023-08-30T01:58:24;18.67;89.89
65766;SHT31;52915;53.718;19.946;2023-08-30T02:03:29;18.58;89.75
65766;SHT31;52915;53.718;19.946;2023-08-30T02:13:50;18.44;89.22
65766;SHT31;52915;53.718;19.946;2023-08-30T02:19:00;18.38;89.01
65766;SHT31;52915;53.718;19.946;2023-08-30T02:24:06;18.31;88.89
65766;SHT31;52915;53.718;19.946;2023-08-30T02:29:11;18.24;88.83
65766;SHT31;52915;53.718;19.946;2023-08-30T02:34:16;18.19;88.80
65766;SHT31;52915;53.718;19.946;2023-08-30T02:39:21;18.15;88.81
65766;SHT31;52915;53.718;19.946;2023-08-30T02:44:25;18.13;88.81
65766;SHT31;52915;53.718;19.946;2023-08-30T02:49:29;18.13;88.80
65766;SHT31;52915;53.718;19.946;2023-08-30T02:54:33;18.13;88.63
65766;SHT31;52915;53.718;19.946;2023-08-30T02:59:38;18.13;88.50
65766;SHT31;52915;53.718;19.946;2023-08-30T03:04:42;18.11;88.43
65766;SHT31;52915;53.718;19.946;2023-08-30T03:09:51;18.11;88.39
65766;SHT31;52915;53.718;19.946;2023-08-30T03:14:56;18.11;88.36
65766;SHT31;52915;53.718;19.946;2023-08-30T03:20:01;18.09;88.24
65766;SHT31;52915;53.718;19.946;2023-08-30T03:25:07;18.06;88.21
65766;SHT31;52915;53.718;19.946;2023-08-30T03:30:12;18.04;88.14
65766;SHT31;52915;53.718;19.946;2023-08-30T03:35:17;18.03;88.10
65766;SHT31;52915;53.718;19.946;2023-08-30T03:40:24;18.03;88.07
65766;SHT31;52915;53.718;19.946;2023-08-30T03:45:28;18.04;88.00
65766;SHT31;52915;53.718;19.946;2023-08-30T03:50:33;18.03;87.89
65766;SHT31;52915;53.718;19.946;2023-08-30T03:55:37;18.02;87.82
65766;SHT31;52915;53.718;19.946;2023-08-30T04:00:42;18.02;87.70
65766;SHT31;52915;53.718;19.946;2023-08-30T04:05:46;18.02;87.62
65766;SHT31;52915;53.718;19.946;2023-08-30T04:10:53;18.01;87.56
65766;SHT31;52915;53.718;19.946;2023-08-30T04:15:58;18.01;87.59
65766;SHT31;52915;53.718;19.946;2023-08-30T04:21:03;18.01;87.54
65766;SHT31;52915;53.718;19.946;2023-08-30T04:26:09;18.00;87.50
65766;SHT31;52915;53.718;19.946;2023-08-30T04:31:14;18.01;87.47
65766;SHT31;52915;53.718;19.946;2023-08-30T04:36:18;18.03;87.41
65766;SHT31;52915;53.718;19.946;2023-08-30T04:41:22;18.07;87.38
65766;SHT31;52915;53.718;19.946;2023-08-30T04:46:27;18.10;87.30
65766;SHT31;52915;53.718;19.946;2023-08-30T04:51:32;18.13;87.22
65766;SHT31;52915;53.718;19.946;2023-08-30T04:56:37;18.16;87.21
65766;SHT31;52915;53.718;19.946;2023-08-30T05:01:41;18.15;87.29
65766;SHT31;52915;53.718;19.946;2023-08-30T05:06:47;18.15;87.25
65766;SHT31;52915;53.718;19.946;2023-08-30T05:11:52;18.14;87.18
65766;SHT31;52915;53.718;19.946;2023-08-30T05:16:57;18.14;87.08
65766;SHT31;52915;53.718;19.946;2023-08-30T05:22:01;18.12;87.01
65766;SHT31;52915;53.718;19.946;2023-08-30T05:27:06;18.14;86.90
65766;SHT31;52915;53.718;19.946;2023-08-30T05:32:10;18.13;86.65
65766;SHT31;52915;53.718;19.946;2023-08-30T05:37:15;18.17;86.31
65766;SHT31;52915;53.718;19.946;2023-08-30T05:42:20;18.26;85.78
65766;SHT31;52915;53.718;19.946;2023-08-30T05:47:24;18.36;85.32
65766;SHT31;52915;53.718;19.946;2023-08-30T05:52:29;18.58;85.10
65766;SHT31;52915;53.718;19.946;2023-08-30T05:57:33;18.80;84.75
65766;SHT31;52915;53.718;19.946;2023-08-30T06:02:38;18.93;84.32
65766;SHT31;52915;53.718;19.946;2023-08-30T06:07:43;18.97;83.86
65766;SHT31;52915;53.718;19.946;2023-08-30T06:12:48;18.96;83.82
65766;SHT31;52915;53.718;19.946;2023-08-30T06:17:52;18.87;83.79
65766;SHT31;52915;53.718;19.946;2023-08-30T06:22:57;18.77;83.92
65766;SHT31;52915;53.718;19.946;2023-08-30T06:28:02;18.72;84.21
65766;SHT31;52915;53.718;19.946;2023-08-30T06:33:07;18.72;84.39
65766;SHT31;52915;53.718;19.946;2023-08-30T06:38:12;18.65;84.36
65766;SHT31;52915;53.718;19.946;2023-08-30T06:43:16;18.62;84.23
65766;SHT31;52915;53.718;19.946;2023-08-30T06:48:22;18.64;84.13
65766;SHT31;52915;53.718;19.946;2023-08-30T06:53:27;18.66;84.04
65766;SHT31;52915;53.718;19.946;2023-08-30T06:58:31;18.80;83.98
65766;SHT31;52915;53.718;19.946;2023-08-30T07:03:35;18.83;83.63
65766;SHT31;52915;53.718;19.946;2023-08-30T07:08:40;18.91;83.75
65766;SHT31;52915;53.718;19.946;2023-08-30T07:13:44;19.07;83.37
65766;SHT31;52915;53.718;19.946;2023-08-30T07:18:48;19.19;82.96
65766;SHT31;52915;53.718;19.946;2023-08-30T07:23:53;19.31;82.82
65766;SHT31;52915;53.718;19.946;2023-08-30T07:28:58;19.37;82.40
65766;SHT31;52915;53.718;19.946;2023-08-30T07:34:02;19.36;82.25
65766;SHT31;52915;53.718;19.946;2023-08-30T07:39:07;19.34;82.00
65766;SHT31;52915;53.718;19.946;2023-08-30T07:44:11;19.29;81.99
65766;SHT31;52915;53.718;19.946;2023-08-30T07:49:15;19.25;82.04
65766;SHT31;52915;53.718;19.946;2023-08-30T07:54:19;19.17;81.83
65766;SHT31;52915;53.718;19.946;2023-08-30T07:59:24;19.25;81.88
65766;SHT31;52915;53.718;19.946;2023-08-30T08:04:28;19.41;81.54
65766;SHT31;52915;53.718;19.946;2023-08-30T08:09:33;19.41;81.08
65766;SHT31;52915;53.718;19.946;2023-08-30T08:14:37;19.37;81.19
65766;SHT31;52915;53.718;19.946;2023-08-30T08:19:42;19.40;81.22
65766;SHT31;52915;53.718;19.946;2023-08-30T08:24:47;19.52;81.14
65766;SHT31;52915;53.718;19.946;2023-08-30T08:29:53;19.55;81.06
65766;SHT31;52915;53.718;19.946;2023-08-30T08:34:57;19.59;80.85
65766;SHT31;52915;53.718;19.946;2023-08-30T08:40:02;19.56;80.57
65766;SHT31;52915;53.718;19.946;2023-08-30T08:45:12;19.49;80.51
65766;SHT31;52915;53.718;19.946;2023-08-30T08:50:19;19.57;80.80
65766;SHT31;52915;53.718;19.946;2023-08-30T08:55:25;19.67;80.57
65766;SHT31;52915;53.718;19.946;2023-08-30T09:00:33;19.67;80.25
65766;SHT31;52915;53.718;19.946;2023-08-30T09:05:38;19.53;80.33
65766;SHT31;52915;53.718;19.946;2023-08-30T09:10:44;19.46;80.72
65766;SHT31;52915;53.718;19.946;2023-08-30T09:15:48;19.52;80.79
65766;SHT31;52915;53.718;19.946;2023-08-30T09:20:53;19.56;80.59
65766;SHT31;52915;53.718;19.946;2023-08-30T09:26:12;19.57;80.29
65766;SHT31;52915;53.718;19.946;2023-08-30T09:31:17;19.50;80.16
65766;SHT31;52915;53.718;19.946;2023-08-30T09:36:25;19.42;80.24
65766;SHT31;52915;53.718;19.946;2023-08-30T09:41:30;19.34;80.66
65766;SHT31;52915;53.718;19.946;2023-08-30T09:46:46;19.24;80.90
65766;SHT31;52915;53.718;19.946;2023-08-30T09:51:55;19.20;81.35
65766;SHT31;52915;53.718;19.946;2023-08-30T09:57:04;19.20;81.49
65766;SHT31;52915;53.718;19.946;2023-08-30T10:02:10;19.11;81.65
65766;SHT31;52915;53.718;19.946;2023-08-30T10:07:15;19.08;82.22
65766;SHT31;52915;53.718;19.946;2023-08-30T10:12:22;19.09;82.57
65766;SHT31;52915;53.718;19.946;2023-08-30T10:17:28;19.08;82.67
65766;SHT31;52915;53.718;19.946;2023-08-30T10:22:39;19.07;82.89
65766;SHT31;52915;53.718;19.946;2023-08-30T10:27:47;19.09;83.18
65766;SHT31;52915;53.718;19.946;2023-08-30T10:32:53;19.12;83.18
65766;SHT31;52915;53.718;19.946;2023-08-30T10:37:59;19.12;83.21
65766;SHT31;52915;53.718;19.946;2023-08-30T10:43:04;19.13;83.44
65766;SHT31;52915;53.718;19.946;2023-08-30T10:48:08;19.16;83.58
65766;SHT31;52915;53.718;19.946;2023-08-30T10:53:13;19.21;83.67
65766;SHT31;52915;53.718;19.946;2023-08-30T10:58:18;19.25;83.65
65766;SHT31;52915;53.718;19.946;2023-08-30T11:03:23;19.28;83.68
65766;SHT31;52915;53.718;19.946;2023-08-30T11:08:28;19.38;83.88
65766;SHT31;52915;53.718;19.946;2023-08-30T11:13:34;19.52;83.70
65766;SHT31;52915;53.718;19.946;2023-08-30T11:18:39;19.73;83.34
65766;SHT31;52915;53.718;19.946;2023-08-30T11:23:45;19.90;83.21
65766;SHT31;52915;53.718;19.946;2023-08-30T11:28:49;19.97;82.61
65766;SHT31;52915;53.718;19.946;2023-08-30T11:33:56;20.00;82.18
65766;SHT31;52915;53.718;19.946;2023-08-30T11:39:03;20.00;82.14
65766;SHT31;52915;53.718;19.946;2023-08-30T11:44:16;20.05;82.09
65766;SHT31;52915;53.718;19.946;2023-08-30T11:49:21;20.07;82.08
65766;SHT31;52915;53.718;19.946;2023-08-30T11:54:26;20.09;81.91
65766;SHT31;52915;53.718;19.946;2023-08-30T11:59:34;20.07;81.92
65766;SHT31;52915;53.718;19.946;2023-08-30T12:04:44;20.06;81.94
65766;SHT31;52915;53.718;19.946;2023-08-30T12:09:51;19.98;82.15
65766;SHT31;52915;53.718;19.946;2023-08-30T12:14:57;19.91;82.33
65766;SHT31;52915;53.718;19.946;2023-08-30T12:20:16;19.90;82.43
65766;SHT31;52915;53.718;19.946;2023-08-30T12:25:25;19.76;82.46
65766;SHT31;52915;53.718;19.946;2023-08-30T12:30:33;19.73;82.65
65766;SHT31;52915;53.718;19.946;2023-08-30T12:35:47;19.79;82.65
65766;SHT31;52915;53.718;19.946;2023-08-30T12:41:04;19.83;82.50
65766;SHT31;52915;53.718;19.946;2023-08-30T12:46:15;19.84;82.61
65766;SHT31;52915;53.718;19.946;2023-08-30T12:51:35;19.90;82.75
65766;SHT31;52915;53.718;19.946;2023-08-30T12:56:45;20.00;82.83
65766;SHT31;52915;53.718;19.946;2023-08-30T13:02:02;20.10;82.57
65766;SHT31;52915;53.718;19.946;2023-08-30T13:07:09;20.17;82.38
65766;SHT31;52915;53.718;19.946;2023-08-30T13:12:13;20.19;81.96
65766;SHT31;52915;53.718;19.946;2023-08-30T13:17:18;20.31;82.00
65766;SHT31;52915;53.718;19.946;2023-08-30T13:22:22;20.43;82.15
65766;SHT31;52915;53.718;19.946;2023-08-30T13:27:28;20.43;81.88
65766;SHT31;52915;53.718;19.946;2023-08-30T13:32:34;20.36;81.88
65766;SHT31;52915;53.718;19.946;2023-08-30T13:37:40;20.35;82.18
65766;SHT31;52915;53.718;19.946;2023-08-30T13:42:59;20.36;82.30
65766;SHT31;52915;53.718;19.946;2023-08-30T13:48:14;20.29;82.15
65766;SHT31;52915;53.718;19.946;2023-08-30T13:53:25;20.20;82.21
65766;SHT31;52915;53.718;19.946;2023-08-30T13:58:43;20.10;82.47
65766;SHT31;52915;53.718;19.946;2023-08-30T14:03:49;20.06;82.57
65766;SHT31;52915;53.718;19.946;2023-08-30T14:08:56;20.08;82.85
65766;SHT31;52915;53.718;19.946;2023-08-30T14:14:02;20.13;82.86
65766;SHT31;52915;53.718;19.946;2023-08-30T14:19:08;20.16;82.86
65766;SHT31;52915;53.718;19.946;2023-08-30T14:24:12;20.19;82.57
65766;SHT31;52915;53.718;19.946;2023-08-30T14:29:19;20.18;82.64
65766;SHT31;52915;53.718;19.946;2023-08-30T14:34:26;20.20;82.76
65766;SHT31;52915;53.718;19.946;2023-08-30T14:39:30;20.18;82.67
65766;SHT31;52915;53.718;19.946;2023-08-30T14:44:35;20.17;82.85
65766;SHT31;52915;53.718;19.946;2023-08-30T14:49:39;20.17;82.83
65766;SHT31;52915;53.718;19.946;2023-08-30T14:54:46;20.15;82.72
65766;SHT31;52915;53.718;19.946;2023-08-30T14:59:59;20.08;82.73
65766;SHT31;52915;53.718;19.946;2023-08-30T15:05:05;20.05;82.71
65766;SHT31;52915;53.718;19.946;2023-08-30T15:10:10;20.00;82.99
65766;SHT31;52915;53.718;19.946;2023-08-30T15:15:15;20.01;83.27
65766;SHT31;52915;53.718;19.946;2023-08-30T15:20:22;20.04;83.24
65766;SHT31;52915;53.718;19.946;2023-08-30T15:25:26;20.00;83.26
65766;SHT31;52915;53.718;19.946;2023-08-30T15:30:31;19.93;83.25
65766;SHT31;52915;53.718;19.946;2023-08-30T15:35:36;19.87;83.29
65766;SHT31;52915;53.718;19.946;2023-08-30T15:40:42;19.76;83.32
65766;SHT31;52915;53.718;19.946;2023-08-30T15:45:46;19.62;83.59
65766;SHT31;52915;53.718;19.946;2023-08-30T15:50:51;19.59;83.86
65766;SHT31;52915;53.718;19.946;2023-08-30T15:55:55;19.59;84.00
65766;SHT31;52915;53.718;19.946;2023-08-30T16:01:04;19.64;84.10
65766;SHT31;52915;53.718;19.946;2023-08-30T16:06:09;19.59;84.24
65766;SHT31;52915;53.718;19.946;2023-08-30T16:11:14;19.60;84.26
65766;SHT31;52915;53.718;19.946;2023-08-30T16:16:23;19.47;84.41
65766;SHT31;52915;53.718;19.946;2023-08-30T16:21:28;19.41;84.68
65766;SHT31;52915;53.718;19.946;2023-08-30T16:26:42;19.29;85.00
65766;SHT31;52915;53.718;19.946;2023-08-30T16:31:46;19.26;85.18
65766;SHT31;52915;53.718;19.946;2023-08-30T16:36:58;19.27;85.11
65766;SHT31;52915;53.718;19.946;2023-08-30T16:42:03;19.29;85.17
65766;SHT31;52915;53.718;19.946;2023-08-30T16:47:08;19.27;85.28
65766;SHT31;52915;53.718;19.946;2023-08-30T16:52:13;19.24;85.24
65766;SHT31;52915;53.718;19.946;2023-08-30T16:57:17;19.24;85.20
65766;SHT31;52915;53.718;19.946;2023-08-30T17:02:21;19.14;85.26
65766;SHT31;52915;53.718;19.946;2023-08-30T17:07:27;19.09;85.35
65766;SHT31;52915;53.718;19.946;2023-08-30T17:12:31;19.07;85.35
65766;SHT31;52915;53.718;19.946;2023-08-30T17:17:36;19.00;85.57
65766;SHT31;52915;53.718;19.946;2023-08-30T17:22:40;18.96;85.73
65766;SHT31;52915;53.718;19.946;2023-08-30T17:27:46;18.92;85.84
65766;SHT31;52915;53.718;19.946;2023-08-30T17:32:50;18.92;85.86
65766;SHT31;52915;53.718;19.946;2023-08-30T17:37:57;18.91;85.79
65766;SHT31;52915;53.718;19.946;2023-08-30T17:43:01;18.90;85.75
65766;SHT31;52915;53.718;19.946;2023-08-30T17:48:11;18.87;85.88
65766;SHT31;52915;53.718;19.946;2023-08-30T17:53:18;18.84;86.00
65766;SHT31;52915;53.718;19.946;2023-08-30T17:58:34;18.80;86.10
65766;SHT31;52915;53.718;19.946;2023-08-30T18:03:38;18.76;86.25
65766;SHT31;52915;53.718;19.946;2023-08-30T18:08:44;18.74;86.31
65766;SHT31;52915;53.718;19.946;2023-08-30T18:13:48;18.75;86.24
65766;SHT31;52915;53.718;19.946;2023-08-30T18:18:56;18.70;86.30
65766;SHT31;52915;53.718;19.946;2023-08-30T18:24:18;18.66;86.34
65766;SHT31;52915;53.718;19.946;2023-08-30T18:29:25;18.63;86.40
65766;SHT31;52915;53.718;19.946;2023-08-30T18:34:31;18.62;86.41
65766;SHT31;52915;53.718;19.946;2023-08-30T18:39:35;18.59;86.48
65766;SHT31;52915;53.718;19.946;2023-08-30T18:44:40;18.58;86.50
65766;SHT31;52915;53.718;19.946;2023-08-30T18:49:50;18.57;86.56
65766;SHT31;52915;53.718;19.946;2023-08-30T18:54:55;18.56;86.60
65766;SHT31;52915;53.718;19.946;2023-08-30T19:00:00;18.54;86.61
65766;SHT31;52915;53.718;19.946;2023-08-30T19:05:09;18.50;86.71
65766;SHT31;52915;53.718;19.946;2023-08-30T19:10:16;18.48;86.81
65766;SHT31;52915;53.718;19.946;2023-08-30T19:15:20;18.46;86.89
65766;SHT31;52915;53.718;19.946;2023-08-30T19:20:25;18.44;87.00
65766;SHT31;52915;53.718;19.946;2023-08-30T19:25:34;18.46;86.96
65766;SHT31;52915;53.718;19.946;2023-08-30T19:30:43;18.43;86.96
65766;SHT31;52915;53.718;19.946;2023-08-30T19:35:51;18.35;86.90
65766;SHT31;52915;53.718;19.946;2023-08-30T19:40:56;18.27;86.87
65766;SHT31;52915;53.718;19.946;2023-08-30T19:46:02;18.19;86.87
65766;SHT31;52915;53.718;19.946;2023-08-30T19:51:11;18.15;86.96
65766;SHT31;52915;53.718;19.946;2023-08-30T19:56:16;18.13;87.03
65766;SHT31;52915;53.718;19.946;2023-08-30T20:01:21;18.14;87.00
65766;SHT31;52915;53.718;19.946;2023-08-30T20:06:26;18.14;87.00
65766;SHT31;52915;53.718;19.946;2023-08-30T20:11:34;18.11;86.92
65766;SHT31;52915;53.718;19.946;2023-08-30T20:16:38;18.07;86.97
65766;SHT31;52915;53.718;19.946;2023-08-30T20:21:44;18.07;87.00
65766;SHT31;52915;53.718;19.946;2023-08-30T20:26:56;18.08;86.97
65766;SHT31;52915;53.718;19.946;2023-08-30T20:32:04;18.06;86.96
65766;SHT31;52915;53.718;19.946;2023-08-30T20:37:08;18.03;87.04
65766;SHT31;52915;53.718;19.946;2023-08-30T20:42:12;18.05;87.07
65766;SHT31;52915;53.718;19.946;2023-08-30T20:47:17;18.07;86.96
65766;SHT31;52915;53.718;19.946;2023-08-30T20:52:21;18.08;86.88
65766;SHT31;52915;53.718;19.946;2023-08-30T20:57:26;18.08;86.81
65766;SHT31;52915;53.718;19.946;2023-08-30T21:02:31;18.08;86.71
65766;SHT31;52915;53.718;19.946;2023-08-30T21:07:37;18.02;86.81
65766;SHT31;52915;53.718;19.946;2023-08-30T21:12:41;17.99;87.00
65766;SHT31;52915;53.718;19.946;2023-08-30T21:17:54;17.97;87.00
65766;SHT31;52915;53.718;19.946;2023-08-30T21:22:58;17.93;87.18
65766;SHT31;52915;53.718;19.946;2023-08-30T21:28:04;17.91;87.32
65766;SHT31;52915;53.718;19.946;2023-08-30T21:33:12;17.94;87.31
65766;SHT31;52915;53.718;19.946;2023-08-30T21:38:21;17.95;87.25
65766;SHT31;52915;53.718;19.946;2023-08-30T21:43:25;17.95;87.22
65766;SHT31;52915;53.718;19.946;2023-08-30T21:48:29;17.95;87.20
65766;SHT31;52915;53.718;19.946;2023-08-30T21:53:34;17.95;87.19
65766;SHT31;52915;53.718;19.946;2023-08-30T21:58:38;17.92;87.25
65766;SHT31;52915;53.718;19.946;2023-08-30T22:03:42;17.90;87.34
65766;SHT31;52915;53.718;19.946;2023-08-30T22:08:46;17.88;87.48
65766;SHT31;52915;53.718;19.946;2023-08-30T22:13:50;17.87;87.57
65766;SHT31;52915;53.718;19.946;2023-08-30T22:18:54;17.88;87.56
65766;SHT31;52915;53.718;19.946;2023-08-30T22:23:59;17.91;87.52
65766;SHT31;52915;53.718;19.946;2023-08-30T22:29:05;17.94;87.45
65766;SHT31;52915;53.718;19.946;2023-08-30T22:34:10;17.97;87.44
65766;SHT31;52915;53.718;19.946;2023-08-30T22:39:15;17.96;87.51
65766;SHT31;52915;53.718;19.946;2023-08-30T22:44:19;17.94;87.56
65766;SHT31;52915;53.718;19.946;2023-08-30T22:49:24;17.92;87.57
65766;SHT31;52915;53.718;19.946;2023-08-30T22:54:29;17.89;87.60
65766;SHT31;52915;53.718;19.946;2023-08-30T22:59:33;17.87;87.69
65766;SHT31;52915;53.718;19.946;2023-08-30T23:04:37;17.88;87.70
65766;SHT31;52915;53.718;19.946;2023-08-30T23:09:42;17.88;87.71
65766;SHT31;52915;53.718;19.946;2023-08-30T23:14:46;17.89;87.66
65766;SHT31;52915;53.718;19.946;2023-08-30T23:19:50;17.87;87.60
65766;SHT31;52915;53.718;19.946;2023-08-30T23:24:55;17.83;87.50
65766;SHT31;52915;53.718;19.946;2023-08-30T23:29:59;17.80;87.51
65766;SHT31;52915;53.718;19.946;2023-08-30T23:35:06;17.77;87.58
65766;SHT31;52915;53.718;19.946;2023-08-30T23:40:12;17.74;87.60
65766;SHT31;52915;53.718;19.946;2023-08-30T23:45:17;17.70;87.68
65766;SHT31;52915;53.718;19.946;2023-08-30T23:50:23;17.66;87.83
65766;SHT31;52915;53.718;19.946;2023-08-30T23:55:27;17.64;88.01
